sensor_id;sensor_type;location;lat;lon;timestamp;pressure;altitude;pressure_sealevel;temperature
42119;BMP280;27783;42.782;23.274;2022-07-04T00:02:12;95715.19;;;22.94
42119;BMP280;27783;42.782;23.274;2022-07-04T00:04:37;95725.78;;;22.97
42119;BMP280;27783;42.782;23.274;2022-07-04T00:07:02;95721.16;;;22.98
42119;BMP280;27783;42.782;23.274;2022-07-04T00:09:28;95725.31;;;22.99
42119;BMP280;27783;42.782;23.274;2022-07-04T00:11:53;95720.50;;;23.03
42119;BMP280;27783;42.782;23.274;2022-07-04T00:14:18;95724.88;;;23.00
42119;BMP280;27783;42.782;23.274;2022-07-04T00:16:44;95719.75;;;23.02
42119;BMP280;27783;42.782;23.274;2022-07-04T00:19:09;95708.56;;;23.04
42119;BMP280;27783;42.782;23.274;2022-07-04T00:21:35;95711.69;;;23.02
42119;BMP280;27783;42.782;23.274;2022-07-04T00:24:00;95707.22;;;22.99
42119;BMP280;27783;42.782;23.274;2022-07-04T00:26:25;95709.91;;;22.99
42119;BMP280;27783;42.782;23.274;2022-07-04T00:28:51;95711.59;;;22.97
42119;BMP280;27783;42.782;23.274;2022-07-04T00:31:16;95706.81;;;22.92
42119;BMP280;27783;42.782;23.274;2022-07-04T00:33:41;95702.81;;;22.88
42119;BMP280;27783;42.782;23.274;2022-07-04T00:36:07;95695.66;;;22.85
42119;BMP280;27783;42.782;23.274;2022-07-04T00:38:32;95696.09;;;22.83
42119;BMP280;27783;42.782;23.274;2022-07-04T00:40:57;95701.03;;;22.85
42119;BMP280;27783;42.782;23.274;2022-07-04T00:43:23;95701.03;;;22.85
42119;BMP280;27783;42.782;23.274;2022-07-04T00:45:49;95701.03;;;22.85
42119;BMP280;27783;42.782;23.274;2022-07-04T00:48:14;95704.91;;;22.84
42119;BMP280;27783;42.782;23.274;2022-07-04T00:50:41;95698.97;;;22.80
42119;BMP280;27783;42.782;23.274;2022-07-04T00:53:06;95704.78;;;22.78
42119;BMP280;27783;42.782;23.274;2022-07-04T00:55:31;95699.28;;;22.73
42119;BMP280;27783;42.782;23.274;2022-07-04T00:57:58;95695.25;;;22.69
42119;BMP280;27783;42.782;23.274;2022-07-04T01:00:23;95698.09;;;22.65
42119;BMP280;27783;42.782;23.274;2022-07-04T01:02:49;95704.38;;;22.62
42119;BMP280;27783;42.782;23.274;2022-07-04T01:05:14;95702.50;;;22.54
42119;BMP280;27783;42.782;23.274;2022-07-04T01:07:39;95711.03;;;22.35
42119;BMP280;27783;42.782;23.274;2022-07-04T01:10:05;95705.94;;;22.37
42119;BMP280;27783;42.782;23.274;2022-07-04T01:12:30;95701.75;;;22.36
42119;BMP280;27783;42.782;23.274;2022-07-04T01:14:56;95705.66;;;22.35
42119;BMP280;27783;42.782;23.274;2022-07-04T01:17:21;95711.47;;;22.34
42119;BMP280;27783;42.782;23.274;2022-07-04T01:19:46;95710.44;;;22.14
42119;BMP280;27783;42.782;23.274;2022-07-04T01:22:12;95715.06;;;22.22
42119;BMP280;27783;42.782;23.274;2022-07-04T01:24:38;95708.06;;;22.24
42119;BMP280;27783;42.782;23.274;2022-07-04T01:27:03;95707.59;;;22.26
42119;BMP280;27783;42.782;23.274;2022-07-04T01:29:29;95711.50;;;22.07
42119;BMP280;27783;42.782;23.274;2022-07-04T01:31:56;95708.19;;;21.42
42119;BMP280;27783;42.782;23.274;2022-07-04T01:34:21;95709.22;;;21.36
42119;BMP280;27783;42.782;23.274;2022-07-04T01:36:46;95706.72;;;21.03
42119;BMP280;27783;42.782;23.274;2022-07-04T01:39:11;95713.84;;;20.97
42119;BMP280;27783;42.782;23.274;2022-07-04T01:41:37;95718.13;;;20.86
42119;BMP280;27783;42.782;23.274;2022-07-04T01:44:02;95717.09;;;20.84
42119;BMP280;27783;42.782;23.274;2022-07-04T01:46:27;95710.59;;;21.02
42119;BMP280;27783;42.782;23.274;2022-07-04T01:48:53;95702.91;;;21.21
42119;BMP280;27783;42.782;23.274;2022-07-04T01:51:18;95700.38;;;21.27
42119;BMP280;27783;42.782;23.274;2022-07-04T01:53:43;95706.97;;;21.35
42119;BMP280;27783;42.782;23.274;2022-07-04T01:56:08;95705.63;;;21.30
42119;BMP280;27783;42.782;23.274;2022-07-04T01:58:34;95715.47;;;21.42
42119;BMP280;27783;42.782;23.274;2022-07-04T02:00:59;95715.00;;;21.43
42119;BMP280;27783;42.782;23.274;2022-07-04T02:03:42;95715.19;;;21.49
42119;BMP280;27783;42.782;23.274;2022-07-04T02:06:08;95718.03;;;21.54
42119;BMP280;27783;42.782;23.274;2022-07-04T02:08:33;95717.88;;;21.57
42119;BMP280;27783;42.782;23.274;2022-07-04T02:11:17;95712.97;;;21.56
42119;BMP280;27783;42.782;23.274;2022-07-04T02:13:43;95723.25;;;21.57
42119;BMP280;27783;42.782;23.274;2022-07-04T02:16:08;95712.06;;;21.59
42119;BMP280;27783;42.782;23.274;2022-07-04T02:18:33;95720.72;;;21.54
42119;BMP280;27783;42.782;23.274;2022-07-04T02:20:58;95726.81;;;21.54
42119;BMP280;27783;42.782;23.274;2022-07-04T02:23:24;95725.63;;;21.55
42119;BMP280;27783;42.782;23.274;2022-07-04T02:25:49;95718.34;;;21.56
42119;BMP280;27783;42.782;23.274;2022-07-04T02:28:14;95717.72;;;21.52
42119;BMP280;27783;42.782;23.274;2022-07-04T02:30:40;95722.22;;;21.55
42119;BMP280;27783;42.782;23.274;2022-07-04T02:33:05;95724.44;;;21.56
42119;BMP280;27783;42.782;23.274;2022-07-04T02:35:31;95717.28;;;21.53
42119;BMP280;27783;42.782;23.274;2022-07-04T02:37:56;95713.56;;;21.51
42119;BMP280;27783;42.782;23.274;2022-07-04T02:40:21;95714.44;;;21.48
42119;BMP280;27783;42.782;23.274;2022-07-04T02:42:46;95721.56;;;21.34
42119;BMP280;27783;42.782;23.274;2022-07-04T02:45:12;95721.13;;;21.26
42119;BMP280;27783;42.782;23.274;2022-07-04T02:47:37;95721.56;;;21.34
42119;BMP280;27783;42.782;23.274;2022-07-04T02:50:02;95731.44;;;21.37
42119;BMP280;27783;42.782;23.274;2022-07-04T02:52:28;95732.16;;;21.37
42119;BMP280;27783;42.782;23.274;2022-07-04T02:54:54;95730.06;;;21.41
42119;BMP280;27783;42.782;23.274;2022-07-04T02:57:19;95739.75;;;21.38
42119;BMP280;27783;42.782;23.274;2022-07-04T02:59:44;95733.66;;;21.38
42119;BMP280;27783;42.782;23.274;2022-07-04T03:02:10;95747.06;;;21.38
42119;BMP280;27783;42.782;23.274;2022-07-04T03:04:35;95745.84;;;21.30
42119;BMP280;27783;42.782;23.274;2022-07-04T03:07:00;95749.75;;;21.00
42119;BMP280;27783;42.782;23.274;2022-07-04T03:09:26;95754.63;;;20.33
42119;BMP280;27783;42.782;23.274;2022-07-04T03:11:54;95749.28;;;20.00
42119;BMP280;27783;42.782;23.274;2022-07-04T03:14:19;95756.94;;;19.89
42119;BMP280;27783;42.782;23.274;2022-07-04T03:16:45;95747.44;;;19.88
42119;BMP280;27783;42.782;23.274;2022-07-04T03:19:10;95750.94;;;19.86
42119;BMP280;27783;42.782;23.274;2022-07-04T03:21:35;95744.59;;;19.92
42119;BMP280;27783;42.782;23.274;2022-07-04T03:24:01;95751.97;;;20.00
42119;BMP280;27783;42.782;23.274;2022-07-04T03:26:26;95751.41;;;20.05
42119;BMP280;27783;42.782;23.274;2022-07-04T03:28:52;95754.69;;;20.09
42119;BMP280;27783;42.782;23.274;2022-07-04T03:31:18;95758.34;;;20.15
42119;BMP280;27783;42.782;23.274;2022-07-04T03:33:43;95754.16;;;20.14
42119;BMP280;27783;42.782;23.274;2022-07-04T03:36:09;95743.19;;;20.00
42119;BMP280;27783;42.782;23.274;2022-07-04T03:38:35;95756.56;;;20.00
42119;BMP280;27783;42.782;23.274;2022-07-04T03:41:01;95758.75;;;20.13
42119;BMP280;27783;42.782;23.274;2022-07-04T03:43:28;95765.41;;;20.09
42119;BMP280;27783;42.782;23.274;2022-07-04T03:45:54;95755.31;;;20.13
42119;BMP280;27783;42.782;23.274;2022-07-04T03:48:21;95757.06;;;20.07
42119;BMP280;27783;42.782;23.274;2022-07-04T03:50:47;95757.72;;;19.78
42119;BMP280;27783;42.782;23.274;2022-07-04T03:53:13;95762.16;;;19.72
42119;BMP280;27783;42.782;23.274;2022-07-04T03:55:40;95758.66;;;19.84
42119;BMP280;27783;42.782;23.274;2022-07-04T03:58:06;95757.31;;;20.00
42119;BMP280;27783;42.782;23.274;2022-07-04T04:00:32;95756.84;;;20.14
42119;BMP280;27783;42.782;23.274;2022-07-04T04:02:58;95757.06;;;20.07
42119;BMP280;27783;42.782;23.274;2022-07-04T04:05:24;95755.91;;;20.08
42119;BMP280;27783;42.782;23.274;2022-07-04T04:07:58;95751.91;;;20.12
42119;BMP280;27783;42.782;23.274;2022-07-04T04:10:24;95755.25;;;20.37
42119;BMP280;27783;42.782;23.274;2022-07-04T04:12:50;95754.41;;;20.28
42119;BMP280;27783;42.782;23.274;2022-07-04T04:15:16;95756.16;;;20.43
42119;BMP280;27783;42.782;23.274;2022-07-04T04:17:41;95766.31;;;20.48
42119;BMP280;27783;42.782;23.274;2022-07-04T04:20:07;95753.53;;;20.52
42119;BMP280;27783;42.782;23.274;2022-07-04T04:22:35;95755.28;;;20.75
42119;BMP280;27783;42.782;23.274;2022-07-04T04:25:01;95757.94;;;20.96
42119;BMP280;27783;42.782;23.274;2022-07-04T04:27:27;95750.41;;;21.12
42119;BMP280;27783;42.782;23.274;2022-07-04T04:29:52;95761.63;;;21.28
42119;BMP280;27783;42.782;23.274;2022-07-04T04:32:18;95759.28;;;21.48
42119;BMP280;27783;42.782;23.274;2022-07-04T04:34:43;95757.41;;;21.66
42119;BMP280;27783;42.782;23.274;2022-07-04T04:37:10;95764.75;;;21.83
42119;BMP280;27783;42.782;23.274;2022-07-04T04:39:49;95762.38;;;22.02
42119;BMP280;27783;42.782;23.274;2022-07-04T04:42:14;95758.63;;;22.17
42119;BMP280;27783;42.782;23.274;2022-07-04T04:44:39;95752.81;;;22.27
42119;BMP280;27783;42.782;23.274;2022-07-04T04:47:05;95762.97;;;22.15
42119;BMP280;27783;42.782;23.274;2022-07-04T04:49:30;95754.56;;;22.39
42119;BMP280;27783;42.782;23.274;2022-07-04T04:51:56;95765.19;;;22.51
42119;BMP280;27783;42.782;23.274;2022-07-04T04:54:22;95763.50;;;22.62
42119;BMP280;27783;42.782;23.274;2022-07-04T04:56:48;95758.53;;;22.78
42119;BMP280;27783;42.782;23.274;2022-07-04T04:59:14;95752.25;;;22.90
42119;BMP280;27783;42.782;23.274;2022-07-04T05:01:47;95760.72;;;22.97
42119;BMP280;27783;42.782;23.274;2022-07-04T05:04:12;95759.50;;;23.07
42119;BMP280;27783;42.782;23.274;2022-07-04T05:06:39;95765.00;;;23.12
42119;BMP280;27783;42.782;23.274;2022-07-04T05:09:05;95754.81;;;23.16
42119;BMP280;27783;42.782;23.274;2022-07-04T05:11:30;95757.94;;;23.15
42119;BMP280;27783;42.782;23.274;2022-07-04T05:13:55;95755.72;;;23.13
42119;BMP280;27783;42.782;23.274;2022-07-04T05:16:20;95757.66;;;23.22
42119;BMP280;27783;42.782;23.274;2022-07-04T05:18:46;95756.41;;;23.31
42119;BMP280;27783;42.782;23.274;2022-07-04T05:21:11;95759.06;;;23.40
42119;BMP280;27783;42.782;23.274;2022-07-04T05:23:36;95756.81;;;22.98
42119;BMP280;27783;42.782;23.274;2022-07-04T05:26:01;95757.13;;;23.00
42119;BMP280;27783;42.782;23.274;2022-07-04T05:28:27;95761.47;;;22.98
42119;BMP280;27783;42.782;23.274;2022-07-04T05:30:52;95762.50;;;23.00
42119;BMP280;27783;42.782;23.274;2022-07-04T05:33:18;95755.59;;;23.08
42119;BMP280;27783;42.782;23.274;2022-07-04T05:35:43;95766.78;;;23.24
42119;BMP280;27783;42.782;23.274;2022-07-04T05:38:09;95761.19;;;23.36
42119;BMP280;27783;42.782;23.274;2022-07-04T05:40:34;95761.69;;;23.49
42119;BMP280;27783;42.782;23.274;2022-07-04T05:42:59;95765.88;;;23.50
42119;BMP280;27783;42.782;23.274;2022-07-04T05:45:24;95759.25;;;23.59
42119;BMP280;27783;42.782;23.274;2022-07-04T05:47:50;95761.28;;;23.64
42119;BMP280;27783;42.782;23.274;2022-07-04T05:50:15;95748.25;;;23.72
42119;BMP280;27783;42.782;23.274;2022-07-04T05:52:40;95751.00;;;23.86
42119;BMP280;27783;42.782;23.274;2022-07-04T05:55:06;95748.56;;;23.96
42119;BMP280;27783;42.782;23.274;2022-07-04T05:57:32;95746.91;;;24.13
42119;BMP280;27783;42.782;23.274;2022-07-04T05:59:57;95742.75;;;24.26
42119;BMP280;27783;42.782;23.274;2022-07-04T06:02:24;95746.03;;;24.44
42119;BMP280;27783;42.782;23.274;2022-07-04T06:04:49;95741.97;;;24.62
42119;BMP280;27783;42.782;23.274;2022-07-04T06:07:14;95746.16;;;24.77
42119;BMP280;27783;42.782;23.274;2022-07-04T06:09:40;95746.78;;;24.87
42119;BMP280;27783;42.782;23.274;2022-07-04T06:12:05;95752.63;;;24.99
42119;BMP280;27783;42.782;23.274;2022-07-04T06:14:31;95757.00;;;25.11
42119;BMP280;27783;42.782;23.274;2022-07-04T06:16:56;95745.66;;;25.21
42119;BMP280;27783;42.782;23.274;2022-07-04T06:19:21;95749.06;;;25.36
42119;BMP280;27783;42.782;23.274;2022-07-04T06:21:47;95736.47;;;25.47
42119;BMP280;27783;42.782;23.274;2022-07-04T06:24:12;95743.03;;;25.60
42119;BMP280;27783;42.782;23.274;2022-07-04T06:26:37;95742.69;;;25.72
42119;BMP280;27783;42.782;23.274;2022-07-04T06:29:03;95747.72;;;25.79
42119;BMP280;27783;42.782;23.274;2022-07-04T06:31:28;95736.31;;;25.89
42119;BMP280;27783;42.782;23.274;2022-07-04T06:33:53;95737.25;;;25.86
42119;BMP280;27783;42.782;23.274;2022-07-04T06:36:37;95737.28;;;26.11
42119;BMP280;27783;42.782;23.274;2022-07-04T06:39:02;95735.41;;;26.17
42119;BMP280;27783;42.782;23.274;2022-07-04T06:41:28;95734.25;;;26.23
42119;BMP280;27783;42.782;23.274;2022-07-04T06:43:53;95732.94;;;26.13
42119;BMP280;27783;42.782;23.274;2022-07-04T06:46:18;95733.31;;;26.26
42119;BMP280;27783;42.782;23.274;2022-07-04T06:48:43;95730.09;;;26.27
42119;BMP280;27783;42.782;23.274;2022-07-04T06:51:09;95724.81;;;26.13
42119;BMP280;27783;42.782;23.274;2022-07-04T06:53:34;95720.66;;;26.18
42119;BMP280;27783;42.782;23.274;2022-07-04T06:55:59;95714.53;;;26.17
42119;BMP280;27783;42.782;23.274;2022-07-04T06:58:25;95718.34;;;26.06
42119;BMP280;27783;42.782;23.274;2022-07-04T07:00:50;95722.69;;;26.23
42119;BMP280;27783;42.782;23.274;2022-07-04T07:03:15;95718.09;;;26.28
42119;BMP280;27783;42.782;23.274;2022-07-04T07:05:40;95716.38;;;26.50
42119;BMP280;27783;42.782;23.274;2022-07-04T07:08:06;95715.84;;;26.46
42119;BMP280;27783;42.782;23.274;2022-07-04T07:10:32;95708.56;;;26.58
42119;BMP280;27783;42.782;23.274;2022-07-04T07:12:58;95713.81;;;26.66
42119;BMP280;27783;42.782;23.274;2022-07-04T07:15:23;95710.09;;;26.64
42119;BMP280;27783;42.782;23.274;2022-07-04T07:17:48;95707.28;;;26.78
42119;BMP280;27783;42.782;23.274;2022-07-04T07:20:14;95710.84;;;26.94
42119;BMP280;27783;42.782;23.274;2022-07-04T07:22:39;95701.16;;;27.13
42119;BMP280;27783;42.782;23.274;2022-07-04T07:25:06;95702.22;;;26.91
42119;BMP280;27783;42.782;23.274;2022-07-04T07:27:31;95703.19;;;27.23
42119;BMP280;27783;42.782;23.274;2022-07-04T07:29:56;95703.06;;;27.37
42119;BMP280;27783;42.782;23.274;2022-07-04T07:32:22;95703.59;;;27.46
42119;BMP280;27783;42.782;23.274;2022-07-04T07:34:47;95699.69;;;27.53
42119;BMP280;27783;42.782;23.274;2022-07-04T07:37:12;95706.69;;;27.64
42119;BMP280;27783;42.782;23.274;2022-07-04T07:39:38;95695.75;;;27.48
42119;BMP280;27783;42.782;23.274;2022-07-04T07:42:03;95692.00;;;27.41
42119;BMP280;27783;42.782;23.274;2022-07-04T07:44:28;95693.22;;;27.40
42119;BMP280;27783;42.782;23.274;2022-07-04T07:46:54;95689.81;;;27.44
42119;BMP280;27783;42.782;23.274;2022-07-04T07:49:19;95690.66;;;27.61
42119;BMP280;27783;42.782;23.274;2022-07-04T07:51:45;95694.63;;;27.65
42119;BMP280;27783;42.782;23.274;2022-07-04T07:54:10;95684.50;;;27.60
42119;BMP280;27783;42.782;23.274;2022-07-04T07:56:35;95681.91;;;27.82
42119;BMP280;27783;42.782;23.274;2022-07-04T07:59:00;95681.19;;;27.97
42119;BMP280;27783;42.782;23.274;2022-07-04T08:01:26;95677.09;;;28.18
42119;BMP280;27783;42.782;23.274;2022-07-04T08:03:51;95677.63;;;28.32
42119;BMP280;27783;42.782;23.274;2022-07-04T08:06:35;95679.84;;;28.39
42119;BMP280;27783;42.782;23.274;2022-07-04T08:09:00;95670.75;;;28.53
42119;BMP280;27783;42.782;23.274;2022-07-04T08:11:26;95664.34;;;28.72
42119;BMP280;27783;42.782;23.274;2022-07-04T08:13:51;95673.25;;;28.93
42119;BMP280;27783;42.782;23.274;2022-07-04T08:16:17;95668.06;;;29.06
42119;BMP280;27783;42.782;23.274;2022-07-04T08:18:42;95673.72;;;28.97
42119;BMP280;27783;42.782;23.274;2022-07-04T08:21:08;95663.34;;;29.12
42119;BMP280;27783;42.782;23.274;2022-07-04T08:23:33;95665.31;;;29.17
42119;BMP280;27783;42.782;23.274;2022-07-04T08:25:59;95658.16;;;29.14
42119;BMP280;27783;42.782;23.274;2022-07-04T08:28:25;95653.69;;;29.22
42119;BMP280;27783;42.782;23.274;2022-07-04T08:30:50;95654.72;;;29.24
42119;BMP280;27783;42.782;23.274;2022-07-04T08:33:16;95658.38;;;29.43
42119;BMP280;27783;42.782;23.274;2022-07-04T08:35:41;95653.44;;;29.41
42119;BMP280;27783;42.782;23.274;2022-07-04T08:38:06;95652.63;;;29.62
42119;BMP280;27783;42.782;23.274;2022-07-04T08:40:31;95655.75;;;29.87
42119;BMP280;27783;42.782;23.274;2022-07-04T08:42:59;95645.56;;;29.98
42119;BMP280;27783;42.782;23.274;2022-07-04T08:45:27;95643.25;;;30.13
42119;BMP280;27783;42.782;23.274;2022-07-04T08:47:54;95645.16;;;30.28
42119;BMP280;27783;42.782;23.274;2022-07-04T08:50:34;95655.22;;;30.44
42119;BMP280;27783;42.782;23.274;2022-07-04T08:53:06;95643.44;;;30.31
42119;BMP280;27783;42.782;23.274;2022-07-04T08:55:32;95653.31;;;30.28
42119;BMP280;27783;42.782;23.274;2022-07-04T08:58:16;95646.09;;;30.42
42119;BMP280;27783;42.782;23.274;2022-07-04T09:03:25;95647.75;;;30.50
42119;BMP280;27783;42.782;23.274;2022-07-04T09:05:51;95638.28;;;30.62
42119;BMP280;27783;42.782;23.274;2022-07-04T09:08:16;95643.84;;;30.74
42119;BMP280;27783;42.782;23.274;2022-07-04T09:10:42;95635.38;;;30.83
42119;BMP280;27783;42.782;23.274;2022-07-04T09:13:08;95646.56;;;30.40
42119;BMP280;27783;42.782;23.274;2022-07-04T09:15:33;95635.16;;;30.76
42119;BMP280;27783;42.782;23.274;2022-07-04T09:17:59;95642.16;;;31.00
42119;BMP280;27783;42.782;23.274;2022-07-04T09:20:25;95634.34;;;31.14
42119;BMP280;27783;42.782;23.274;2022-07-04T09:22:51;95629.47;;;31.31
42119;BMP280;27783;42.782;23.274;2022-07-04T09:25:17;95629.91;;;31.40
42119;BMP280;27783;42.782;23.274;2022-07-04T09:27:56;95630.84;;;31.43
42119;BMP280;27783;42.782;23.274;2022-07-04T09:30:25;95625.00;;;31.57
42119;BMP280;27783;42.782;23.274;2022-07-04T09:32:51;95627.81;;;31.69
42119;BMP280;27783;42.782;23.274;2022-07-04T09:37:44;95617.94;;;31.66
42119;BMP280;27783;42.782;23.274;2022-07-04T09:42:50;95608.44;;;31.73
42119;BMP280;27783;42.782;23.274;2022-07-04T09:45:16;95607.28;;;31.86
42119;BMP280;27783;42.782;23.274;2022-07-04T09:47:44;95597.66;;;31.62
42119;BMP280;27783;42.782;23.274;2022-07-04T09:50:14;95596.34;;;31.68
42119;BMP280;27783;42.782;23.274;2022-07-04T09:55:19;95594.63;;;31.89
42119;BMP280;27783;42.782;23.274;2022-07-04T09:57:45;95599.19;;;31.99
42119;BMP280;27783;42.782;23.274;2022-07-04T10:02:42;95595.91;;;32.18
42119;BMP280;27783;42.782;23.274;2022-07-04T10:05:07;95605.06;;;32.21
42119;BMP280;27783;42.782;23.274;2022-07-04T10:07:39;95594.16;;;32.39
42119;BMP280;27783;42.782;23.274;2022-07-04T10:12:54;95592.53;;;32.61
42119;BMP280;27783;42.782;23.274;2022-07-04T10:15:19;95591.06;;;32.30
42119;BMP280;27783;42.782;23.274;2022-07-04T10:17:45;95589.81;;;32.61
42119;BMP280;27783;42.782;23.274;2022-07-04T10:20:10;95594.91;;;32.03
42119;BMP280;27783;42.782;23.274;2022-07-04T10:22:36;95590.47;;;32.36
42119;BMP280;27783;42.782;23.274;2022-07-04T10:25:02;95593.06;;;32.60
42119;BMP280;27783;42.782;23.274;2022-07-04T10:27:27;95594.41;;;32.84
42119;BMP280;27783;42.782;23.274;2022-07-04T10:29:53;95584.34;;;32.92
42119;BMP280;27783;42.782;23.274;2022-07-04T10:32:19;95585.41;;;33.01
42119;BMP280;27783;42.782;23.274;2022-07-04T10:34:45;95581.53;;;33.22
42119;BMP280;27783;42.782;23.274;2022-07-04T10:37:10;95582.25;;;33.23
42119;BMP280;27783;42.782;23.274;2022-07-04T10:39:35;95578.22;;;32.86
42119;BMP280;27783;42.782;23.274;2022-07-04T10:42:01;95578.47;;;33.13
42119;BMP280;27783;42.782;23.274;2022-07-04T10:44:27;95574.28;;;33.25
42119;BMP280;27783;42.782;23.274;2022-07-04T10:46:59;95568.22;;;33.32
42119;BMP280;27783;42.782;23.274;2022-07-04T10:49:26;95567.91;;;33.35
42119;BMP280;27783;42.782;23.274;2022-07-04T10:57:15;95565.03;;;33.65
42119;BMP280;27783;42.782;23.274;2022-07-04T10:59:42;95568.72;;;33.81
42119;BMP280;27783;42.782;23.274;2022-07-04T11:04:55;95552.59;;;33.90
42119;BMP280;27783;42.782;23.274;2022-07-04T11:07:21;95545.59;;;34.01
42119;BMP280;27783;42.782;23.274;2022-07-04T11:10:17;95547.69;;;34.08
42119;BMP280;27783;42.782;23.274;2022-07-04T11:12:32;95551.47;;;34.05
42119;BMP280;27783;42.782;23.274;2022-07-04T11:14:57;95552.09;;;34.11
42119;BMP280;27783;42.782;23.274;2022-07-04T11:17:27;95549.41;;;33.98
42119;BMP280;27783;42.782;23.274;2022-07-04T11:20:02;95545.16;;;34.10
42119;BMP280;27783;42.782;23.274;2022-07-04T11:22:28;95545.34;;;34.25
42119;BMP280;27783;42.782;23.274;2022-07-04T11:24:53;95541.03;;;34.16
42119;BMP280;27783;42.782;23.274;2022-07-04T11:27:20;95541.59;;;34.35
42119;BMP280;27783;42.782;23.274;2022-07-04T11:30:04;95541.13;;;34.11
42119;BMP280;27783;42.782;23.274;2022-07-04T11:32:30;95536.94;;;34.43
42119;BMP280;27783;42.782;23.274;2022-07-04T11:34:56;95530.31;;;34.38
42119;BMP280;27783;42.782;23.274;2022-07-04T11:37:22;95528.28;;;33.29
42119;BMP280;27783;42.782;23.274;2022-07-04T11:39:50;95529.06;;;33.49
42119;BMP280;27783;42.782;23.274;2022-07-04T11:42:16;95515.78;;;33.78
42119;BMP280;27783;42.782;23.274;2022-07-04T11:45:00;95520.91;;;33.94
42119;BMP280;27783;42.782;23.274;2022-07-04T11:47:34;95520.72;;;34.12
42119;BMP280;27783;42.782;23.274;2022-07-04T11:50:12;95509.81;;;34.32
42119;BMP280;27783;42.782;23.274;2022-07-04T11:55:05;95508.56;;;34.00
42119;BMP280;27783;42.782;23.274;2022-07-04T11:57:34;95498.28;;;34.26
42119;BMP280;27783;42.782;23.274;2022-07-04T12:00:07;95493.19;;;34.50
42119;BMP280;27783;42.782;23.274;2022-07-04T12:02:34;95488.66;;;34.72
42119;BMP280;27783;42.782;23.274;2022-07-04T12:04:59;95479.47;;;34.97
42119;BMP280;27783;42.782;23.274;2022-07-04T12:07:27;95480.75;;;35.23
42119;BMP280;27783;42.782;23.274;2022-07-04T12:09:53;95480.84;;;35.38
42119;BMP280;27783;42.782;23.274;2022-07-04T12:12:19;95480.34;;;35.54
42119;BMP280;27783;42.782;23.274;2022-07-04T12:15:01;95467.47;;;35.69
42119;BMP280;27783;42.782;23.274;2022-07-04T12:17:33;95461.84;;;35.82
42119;BMP280;27783;42.782;23.274;2022-07-04T12:20:00;95463.50;;;35.92
42119;BMP280;27783;42.782;23.274;2022-07-04T12:22:42;95458.38;;;35.88
42119;BMP280;27783;42.782;23.274;2022-07-04T12:25:19;95465.38;;;34.86
42119;BMP280;27783;42.782;23.274;2022-07-04T12:27:51;95463.50;;;35.50
42119;BMP280;27783;42.782;23.274;2022-07-04T12:30:16;95455.66;;;35.54
42119;BMP280;27783;42.782;23.274;2022-07-04T12:32:43;95463.50;;;35.50
42119;BMP280;27783;42.782;23.274;2022-07-04T12:35:08;95454.59;;;34.88
42119;BMP280;27783;42.782;23.274;2022-07-04T12:37:34;95455.28;;;34.81
42119;BMP280;27783;42.782;23.274;2022-07-04T12:40:06;95455.09;;;34.79
42119;BMP280;27783;42.782;23.274;2022-07-04T12:42:31;95456.06;;;34.89
42119;BMP280;27783;42.782;23.274;2022-07-04T12:45:04;95457.34;;;35.15
42119;BMP280;27783;42.782;23.274;2022-07-04T12:47:30;95453.78;;;35.34
42119;BMP280;27783;42.782;23.274;2022-07-04T12:49:55;95446.19;;;35.55
42119;BMP280;27783;42.782;23.274;2022-07-04T12:52:21;95446.97;;;35.70
42119;BMP280;27783;42.782;23.274;2022-07-04T12:55:04;95451.72;;;35.69
42119;BMP280;27783;42.782;23.274;2022-07-04T12:57:32;95447.75;;;35.85
42119;BMP280;27783;42.782;23.274;2022-07-04T12:59:57;95445.00;;;35.85
42119;BMP280;27783;42.782;23.274;2022-07-04T13:02:22;95435.31;;;35.84
42119;BMP280;27783;42.782;23.274;2022-07-04T13:04:48;95441.72;;;34.76
42119;BMP280;27783;42.782;23.274;2022-07-04T13:07:14;95431.03;;;35.19
42119;BMP280;27783;42.782;23.274;2022-07-04T13:09:40;95439.53;;;35.09
42119;BMP280;27783;42.782;23.274;2022-07-04T13:12:05;95437.09;;;34.98
42119;BMP280;27783;42.782;23.274;2022-07-04T13:14:49;95427.69;;;34.32
42119;BMP280;27783;42.782;23.274;2022-07-04T13:17:14;95437.81;;;34.24
42119;BMP280;27783;42.782;23.274;2022-07-04T13:19:40;95432.47;;;34.19
42119;BMP280;27783;42.782;23.274;2022-07-04T13:22:05;95425.75;;;34.40
42119;BMP280;27783;42.782;23.274;2022-07-04T13:24:30;95431.63;;;34.44
42119;BMP280;27783;42.782;23.274;2022-07-04T13:26:55;95436.63;;;34.33
42119;BMP280;27783;42.782;23.274;2022-07-04T13:29:21;95421.69;;;34.33
42119;BMP280;27783;42.782;23.274;2022-07-04T13:31:47;95428.28;;;34.38
42119;BMP280;27783;42.782;23.274;2022-07-04T13:34:12;95428.28;;;34.38
42119;BMP280;27783;42.782;23.274;2022-07-04T13:36:38;95429.63;;;34.24
42119;BMP280;27783;42.782;23.274;2022-07-04T13:39:03;95432.47;;;34.19
42119;BMP280;27783;42.782;23.274;2022-07-04T13:41:29;95426.94;;;34.12
42119;BMP280;27783;42.782;23.274;2022-07-04T13:43:55;95419.28;;;34.10
42119;BMP280;27783;42.782;23.274;2022-07-04T13:46:21;95416.19;;;34.14
42119;BMP280;27783;42.782;23.274;2022-07-04T13:48:46;95414.34;;;34.29
42119;BMP280;27783;42.782;23.274;2022-07-04T13:51:13;95412.91;;;34.15
42119;BMP280;27783;42.782;23.274;2022-07-04T13:53:39;95415.38;;;32.45
42119;BMP280;27783;42.782;23.274;2022-07-04T13:56:04;95411.19;;;31.52
42119;BMP280;27783;42.782;23.274;2022-07-04T13:58:30;95412.75;;;30.71
42119;BMP280;27783;42.782;23.274;2022-07-04T14:00:56;95414.28;;;30.43
42119;BMP280;27783;42.782;23.274;2022-07-04T14:03:21;95406.06;;;29.96
42119;BMP280;27783;42.782;23.274;2022-07-04T14:05:47;95409.53;;;29.63
42119;BMP280;27783;42.782;23.274;2022-07-04T14:08:12;95408.50;;;29.32
42119;BMP280;27783;42.782;23.274;2022-07-04T14:10:37;95411.28;;;29.16
42119;BMP280;27783;42.782;23.274;2022-07-04T14:13:02;95401.81;;;28.93
42119;BMP280;27783;42.782;23.274;2022-07-04T14:15:28;95395.22;;;28.73
42119;BMP280;27783;42.782;23.274;2022-07-04T14:17:53;95394.22;;;28.65
42119;BMP280;27783;42.782;23.274;2022-07-04T14:20:18;95396.50;;;28.56